首页
METAR-TAF:

METAR-TAF

机场 :

Dease Lake, 不列颠哥伦比亚, 加拿大

纬度: 58-25-20N, 经度: 130-01-53W, 海拔: 803米

当前天气观测

该预报发布于32分钟前的15:00 UTC
风速5节,风向多变,有时为15节阵风
温度 1°C
湿度 64%
气压 981 hPa
能見度: 14.5公里
少量云层高于18000英尺

METAR: CYDL 291500Z AUTO VRB05G15KT 9SM FEW180 01/M05 A2898 RMK SLP843

时间: 07:32 (15:32 UTC)

预报

该预报发布于15小时和54分钟前的23:38 UTC
预报有效从29日的 00点(UTC)到 29日的 03点(UTC)
风速8节,风向南转西南
能見度: 10公里
天空无云
从 29日的 0200点(UTC)
风速7节,风向西南
能見度: 10公里
散云层高于6000英尺
多云层高于18000英尺
短暂存在
从 29日的 02点(UTC)到 29日的 03点(UTC)
能見度: 10公里
多云层高于6000英尺
小雪

TAF: CYDL 282338Z 2900/2903 21008KT P6SM SKC FM290200 22007KT P6SM SCT060 BKN180 TEMPO 2902/2903 P6SM -SN BKN060 RMK FCST BASED ON AUTO OBS. NXT FCST WILL BE ISSUED AT 291645Z

超过4000个机场的气象观测和天气预报(METAR&TAF报告)。

可查询的气象台以黄色和红色小点在地图上表示。

将鼠标移到小点上方,可查看气象台名称。

然后点击查看天气观测和预报。

如需切换地图:点击带黑十字的绿色按钮放大地图;点击带横线的绿色按钮缩小地图;或者点击绿色箭头查看邻近地区的地图。


METAR-TAF: